sensor_id;sensor_type;location;lat;lon;timestamp;P1;durP1;ratioP1;P2;durP2;ratioP2
8331;SDS011;4203;48.144;14.118;2023-04-03T00:02:14;3.90;;;3.60;;
8331;SDS011;4203;48.144;14.118;2023-04-03T00:04:41;4.80;;;4.40;;
8331;SDS011;4203;48.144;14.118;2023-04-03T00:07:09;4.63;;;4.30;;
8331;SDS011;4203;48.144;14.118;2023-04-03T00:09:38;4.13;;;3.80;;
8331;SDS011;4203;48.144;14.118;2023-04-03T00:12:06;4.33;;;4.03;;
8331;SDS011;4203;48.144;14.118;2023-04-03T00:14:33;4.97;;;4.57;;
8331;SDS011;4203;48.144;14.118;2023-04-03T00:17:00;4.27;;;3.90;;
8331;SDS011;4203;48.144;14.118;2023-04-03T00:19:27;6.43;;;4.50;;
8331;SDS011;4203;48.144;14.118;2023-04-03T00:21:54;4.40;;;4.10;;
8331;SDS011;4203;48.144;14.118;2023-04-03T00:24:21;4.30;;;4.00;;
8331;SDS011;4203;48.144;14.118;2023-04-03T00:26:50;4.37;;;4.07;;
8331;SDS011;4203;48.144;14.118;2023-04-03T00:29:17;4.97;;;4.57;;
8331;SDS011;4203;48.144;14.118;2023-04-03T00:31:44;5.17;;;4.20;;
8331;SDS011;4203;48.144;14.118;2023-04-03T00:34:11;4.97;;;4.57;;
8331;SDS011;4203;48.144;14.118;2023-04-03T00:36:38;4.40;;;4.10;;
8331;SDS011;4203;48.144;14.118;2023-04-03T00:39:05;4.47;;;4.10;;
8331;SDS011;4203;48.144;14.118;2023-04-03T00:41:32;4.50;;;4.10;;
8331;SDS011;4203;48.144;14.118;2023-04-03T00:46:47;4.27;;;3.97;;
8331;SDS011;4203;48.144;14.118;2023-04-03T00:49:15;4.30;;;4.00;;
8331;SDS011;4203;48.144;14.118;2023-04-03T00:51:42;4.60;;;4.30;;
8331;SDS011;4203;48.144;14.118;2023-04-03T00:54:09;4.83;;;4.47;;
8331;SDS011;4203;48.144;14.118;2023-04-03T00:56:37;4.60;;;4.20;;
8331;SDS011;4203;48.144;14.118;2023-04-03T00:59:05;4.43;;;4.13;;
8331;SDS011;4203;48.144;14.118;2023-04-03T01:01:37;5.03;;;4.63;;
8331;SDS011;4203;48.144;14.118;2023-04-03T01:04:05;4.70;;;4.40;;
8331;SDS011;4203;48.144;14.118;2023-04-03T01:06:33;5.10;;;4.60;;
8331;SDS011;4203;48.144;14.118;2023-04-03T01:09:03;4.53;;;4.23;;
8331;SDS011;4203;48.144;14.118;2023-04-03T01:11:31;4.90;;;4.50;;
8331;SDS011;4203;48.144;14.118;2023-04-03T01:13:58;4.73;;;4.30;;
8331;SDS011;4203;48.144;14.118;2023-04-03T01:16:26;4.37;;;3.97;;
8331;SDS011;4203;48.144;14.118;2023-04-03T01:18:57;5.03;;;4.63;;
8331;SDS011;4203;48.144;14.118;2023-04-03T01:24:31;4.63;;;4.33;;
8331;SDS011;4203;48.144;14.118;2023-04-03T01:27:01;4.73;;;4.33;;
8331;SDS011;4203;48.144;14.118;2023-04-03T01:29:30;5.43;;;4.63;;
8331;SDS011;4203;48.144;14.118;2023-04-03T01:32:00;4.53;;;4.23;;
8331;SDS011;4203;48.144;14.118;2023-04-03T01:34:28;4.50;;;4.20;;
8331;SDS011;4203;48.144;14.118;2023-04-03T01:36:56;4.63;;;4.33;;
8331;SDS011;4203;48.144;14.118;2023-04-03T01:39:23;5.30;;;4.87;;
8331;SDS011;4203;48.144;14.118;2023-04-03T01:41:50;4.60;;;4.30;;
8331;SDS011;4203;48.144;14.118;2023-04-03T01:44:18;4.70;;;4.40;;
8331;SDS011;4203;48.144;14.118;2023-04-03T01:46:45;5.17;;;4.77;;
8331;SDS011;4203;48.144;14.118;2023-04-03T01:49:14;5.57;;;5.07;;
8331;SDS011;4203;48.144;14.118;2023-04-03T01:51:41;4.70;;;4.40;;
8331;SDS011;4203;48.144;14.118;2023-04-03T01:54:08;6.90;;;5.30;;
8331;SDS011;4203;48.144;14.118;2023-04-03T01:56:35;5.00;;;4.60;;
8331;SDS011;4203;48.144;14.118;2023-04-03T01:59:04;5.23;;;4.90;;
8331;SDS011;4203;48.144;14.118;2023-04-03T02:01:31;4.93;;;4.30;;
8331;SDS011;4203;48.144;14.118;2023-04-03T02:03:58;5.40;;;4.93;;
8331;SDS011;4203;48.144;14.118;2023-04-03T02:06:26;4.90;;;4.50;;
8331;SDS011;4203;48.144;14.118;2023-04-03T02:08:54;5.10;;;4.70;;
8331;SDS011;4203;48.144;14.118;2023-04-03T02:11:21;5.00;;;4.60;;
8331;SDS011;4203;48.144;14.118;2023-04-03T02:13:48;5.37;;;4.83;;
8331;SDS011;4203;48.144;14.118;2023-04-03T02:16:15;4.73;;;4.43;;
8331;SDS011;4203;48.144;14.118;2023-04-03T02:18:42;5.27;;;4.83;;
8331;SDS011;4203;48.144;14.118;2023-04-03T02:21:10;5.13;;;4.73;;
8331;SDS011;4203;48.144;14.118;2023-04-03T02:23:38;4.80;;;4.40;;
8331;SDS011;4203;48.144;14.118;2023-04-03T02:26:06;5.30;;;4.63;;
8331;SDS011;4203;48.144;14.118;2023-04-03T02:28:34;6.60;;;4.67;;
8331;SDS011;4203;48.144;14.118;2023-04-03T02:31:02;5.40;;;5.00;;
8331;SDS011;4203;48.144;14.118;2023-04-03T02:33:29;4.77;;;4.37;;
8331;SDS011;4203;48.144;14.118;2023-04-03T02:35:58;5.03;;;4.63;;
8331;SDS011;4203;48.144;14.118;2023-04-03T02:38:26;5.13;;;4.73;;
8331;SDS011;4203;48.144;14.118;2023-04-03T02:40:57;5.10;;;4.60;;
8331;SDS011;4203;48.144;14.118;2023-04-03T02:43:26;5.17;;;4.73;;
8331;SDS011;4203;48.144;14.118;2023-04-03T02:45:53;5.13;;;4.73;;
8331;SDS011;4203;48.144;14.118;2023-04-03T02:48:21;6.67;;;4.77;;
8331;SDS011;4203;48.144;14.118;2023-04-03T02:50:48;4.97;;;4.57;;
8331;SDS011;4203;48.144;14.118;2023-04-03T02:53:16;4.67;;;4.27;;
8331;SDS011;4203;48.144;14.118;2023-04-03T02:55:43;4.47;;;4.10;;
8331;SDS011;4203;48.144;14.118;2023-04-03T02:58:12;4.77;;;4.47;;
8331;SDS011;4203;48.144;14.118;2023-04-03T03:00:40;4.83;;;4.47;;
8331;SDS011;4203;48.144;14.118;2023-04-03T03:03:07;4.90;;;4.33;;
8331;SDS011;4203;48.144;14.118;2023-04-03T03:05:34;4.17;;;3.87;;
8331;SDS011;4203;48.144;14.118;2023-04-03T03:08:01;4.60;;;4.30;;
8331;SDS011;4203;48.144;14.118;2023-04-03T03:10:28;4.83;;;4.43;;
8331;SDS011;4203;48.144;14.118;2023-04-03T03:12:56;4.67;;;4.37;;
8331;SDS011;4203;48.144;14.118;2023-04-03T03:15:24;8.20;;;4.00;;
8331;SDS011;4203;48.144;14.118;2023-04-03T03:17:51;4.07;;;3.77;;
8331;SDS011;4203;48.144;14.118;2023-04-03T03:20:18;4.67;;;4.30;;
8331;SDS011;4203;48.144;14.118;2023-04-03T03:22:46;4.67;;;4.23;;
8331;SDS011;4203;48.144;14.118;2023-04-03T03:25:13;4.70;;;4.30;;
8331;SDS011;4203;48.144;14.118;2023-04-03T03:27:40;4.67;;;4.17;;
8331;SDS011;4203;48.144;14.118;2023-04-03T03:30:08;4.23;;;3.93;;
8331;SDS011;4203;48.144;14.118;2023-04-03T03:32:37;4.33;;;4.00;;
8331;SDS011;4203;48.144;14.118;2023-04-03T03:35:04;4.67;;;4.30;;
8331;SDS011;4203;48.144;14.118;2023-04-03T03:37:31;3.80;;;3.50;;
8331;SDS011;4203;48.144;14.118;2023-04-03T03:39:59;4.77;;;3.97;;
8331;SDS011;4203;48.144;14.118;2023-04-03T03:42:26;4.77;;;3.63;;
8331;SDS011;4203;48.144;14.118;2023-04-03T03:44:53;3.77;;;3.47;;
8331;SDS011;4203;48.144;14.118;2023-04-03T03:47:20;4.40;;;4.10;;
8331;SDS011;4203;48.144;14.118;2023-04-03T03:49:48;4.17;;;3.87;;
8331;SDS011;4203;48.144;14.118;2023-04-03T03:52:16;4.00;;;3.70;;
8331;SDS011;4203;48.144;14.118;2023-04-03T03:54:43;4.97;;;4.50;;
8331;SDS011;4203;48.144;14.118;2023-04-03T03:57:10;5.93;;;4.80;;
8331;SDS011;4203;48.144;14.118;2023-04-03T03:59:37;6.73;;;6.00;;
8331;SDS011;4203;48.144;14.118;2023-04-03T04:02:06;6.47;;;5.30;;
8331;SDS011;4203;48.144;14.118;2023-04-03T04:04:33;5.27;;;4.77;;
8331;SDS011;4203;48.144;14.118;2023-04-03T04:07:02;5.40;;;4.90;;
8331;SDS011;4203;48.144;14.118;2023-04-03T04:09:29;5.17;;;4.67;;
8331;SDS011;4203;48.144;14.118;2023-04-03T04:11:56;4.40;;;4.10;;
8331;SDS011;4203;48.144;14.118;2023-04-03T04:14:23;4.63;;;4.33;;
8331;SDS011;4203;48.144;14.118;2023-04-03T04:16:51;5.10;;;4.70;;
8331;SDS011;4203;48.144;14.118;2023-04-03T04:19:18;5.43;;;5.03;;
8331;SDS011;4203;48.144;14.118;2023-04-03T04:21:45;4.77;;;4.47;;
8331;SDS011;4203;48.144;14.118;2023-04-03T04:24:14;4.70;;;4.40;;
8331;SDS011;4203;48.144;14.118;2023-04-03T04:26:41;4.20;;;3.90;;
8331;SDS011;4203;48.144;14.118;2023-04-03T04:29:08;4.40;;;4.00;;
8331;SDS011;4203;48.144;14.118;2023-04-03T04:31:36;4.40;;;4.00;;
8331;SDS011;4203;48.144;14.118;2023-04-03T04:34:03;3.87;;;3.67;;
8331;SDS011;4203;48.144;14.118;2023-04-03T04:36:30;3.97;;;3.67;;
8331;SDS011;4203;48.144;14.118;2023-04-03T04:38:57;4.10;;;3.90;;
8331;SDS011;4203;48.144;14.118;2023-04-03T04:41:26;4.70;;;4.30;;
8331;SDS011;4203;48.144;14.118;2023-04-03T04:43:53;4.60;;;4.20;;
8331;SDS011;4203;48.144;14.118;2023-04-03T04:46:20;3.90;;;3.60;;
8331;SDS011;4203;48.144;14.118;2023-04-03T04:48:47;4.30;;;3.90;;
8331;SDS011;4203;48.144;14.118;2023-04-03T04:51:15;4.63;;;4.23;;
8331;SDS011;4203;48.144;14.118;2023-04-03T04:53:43;4.33;;;4.03;;
8331;SDS011;4203;48.144;14.118;2023-04-03T04:56:10;4.80;;;4.40;;
8331;SDS011;4203;48.144;14.118;2023-04-03T04:58:39;4.73;;;4.33;;
8331;SDS011;4203;48.144;14.118;2023-04-03T05:01:07;4.33;;;4.03;;
8331;SDS011;4203;48.144;14.118;2023-04-03T05:03:35;4.33;;;4.03;;
8331;SDS011;4203;48.144;14.118;2023-04-03T05:06:03;4.20;;;3.90;;
8331;SDS011;4203;48.144;14.118;2023-04-03T05:08:30;15.03;;;10.50;;
8331;SDS011;4203;48.144;14.118;2023-04-03T05:10:58;32.47;;;24.40;;
8331;SDS011;4203;48.144;14.118;2023-04-03T05:13:25;12.23;;;10.53;;
8331;SDS011;4203;48.144;14.118;2023-04-03T05:15:53;10.47;;;8.17;;
8331;SDS011;4203;48.144;14.118;2023-04-03T05:18:20;22.40;;;17.97;;
8331;SDS011;4203;48.144;14.118;2023-04-03T05:20:48;44.57;;;34.73;;
8331;SDS011;4203;48.144;14.118;2023-04-03T05:23:15;29.43;;;23.33;;
8331;SDS011;4203;48.144;14.118;2023-04-03T05:25:43;18.53;;;14.37;;
8331;SDS011;4203;48.144;14.118;2023-04-03T05:28:10;8.67;;;6.33;;
8331;SDS011;4203;48.144;14.118;2023-04-03T05:30:37;6.50;;;5.90;;
8331;SDS011;4203;48.144;14.118;2023-04-03T05:33:06;6.57;;;6.03;;
8331;SDS011;4203;48.144;14.118;2023-04-03T05:35:35;8.77;;;6.03;;
8331;SDS011;4203;48.144;14.118;2023-04-03T05:38:04;8.13;;;7.43;;
8331;SDS011;4203;48.144;14.118;2023-04-03T05:40:31;9.33;;;7.27;;
8331;SDS011;4203;48.144;14.118;2023-04-03T05:42:58;7.83;;;7.03;;
8331;SDS011;4203;48.144;14.118;2023-04-03T05:45:25;7.33;;;6.63;;
8331;SDS011;4203;48.144;14.118;2023-04-03T05:47:52;7.20;;;6.60;;
8331;SDS011;4203;48.144;14.118;2023-04-03T05:50:21;9.53;;;8.63;;
8331;SDS011;4203;48.144;14.118;2023-04-03T05:52:49;6.17;;;5.37;;
8331;SDS011;4203;48.144;14.118;2023-04-03T05:55:17;9.13;;;6.30;;
8331;SDS011;4203;48.144;14.118;2023-04-03T05:57:44;6.97;;;6.27;;
8331;SDS011;4203;48.144;14.118;2023-04-03T06:00:14;6.80;;;5.97;;
8331;SDS011;4203;48.144;14.118;2023-04-03T06:02:42;5.97;;;5.47;;
8331;SDS011;4203;48.144;14.118;2023-04-03T06:05:10;9.20;;;7.93;;
8331;SDS011;4203;48.144;14.118;2023-04-03T06:07:40;6.07;;;5.57;;
8331;SDS011;4203;48.144;14.118;2023-04-03T06:10:07;7.10;;;5.80;;
8331;SDS011;4203;48.144;14.118;2023-04-03T06:12:37;6.37;;;5.77;;
8331;SDS011;4203;48.144;14.118;2023-04-03T06:15:05;8.53;;;7.13;;
8331;SDS011;4203;48.144;14.118;2023-04-03T06:17:35;13.23;;;10.87;;
8331;SDS011;4203;48.144;14.118;2023-04-03T06:20:02;11.53;;;10.33;;
8331;SDS011;4203;48.144;14.118;2023-04-03T06:22:30;9.87;;;8.87;;
8331;SDS011;4203;48.144;14.118;2023-04-03T06:24:59;8.53;;;7.70;;
8331;SDS011;4203;48.144;14.118;2023-04-03T06:27:26;8.50;;;7.70;;
8331;SDS011;4203;48.144;14.118;2023-04-03T06:29:53;7.60;;;6.77;;
8331;SDS011;4203;48.144;14.118;2023-04-03T06:32:20;13.27;;;12.07;;
8331;SDS011;4203;48.144;14.118;2023-04-03T06:34:47;13.77;;;12.57;;
8331;SDS011;4203;48.144;14.118;2023-04-03T06:37:15;7.67;;;6.97;;
8331;SDS011;4203;48.144;14.118;2023-04-03T06:39:43;7.90;;;7.20;;
8331;SDS011;4203;48.144;14.118;2023-04-03T06:42:12;7.37;;;6.77;;
8331;SDS011;4203;48.144;14.118;2023-04-03T06:44:39;7.30;;;6.60;;
8331;SDS011;4203;48.144;14.118;2023-04-03T06:47:06;6.27;;;5.77;;
8331;SDS011;4203;48.144;14.118;2023-04-03T06:49:35;6.40;;;5.70;;
8331;SDS011;4203;48.144;14.118;2023-04-03T06:52:03;6.20;;;5.70;;
8331;SDS011;4203;48.144;14.118;2023-04-03T06:54:31;5.10;;;4.70;;
8331;SDS011;4203;48.144;14.118;2023-04-03T06:56:58;6.17;;;5.57;;
8331;SDS011;4203;48.144;14.118;2023-04-03T06:59:27;7.30;;;5.60;;
8331;SDS011;4203;48.144;14.118;2023-04-03T07:01:54;6.73;;;6.03;;
8331;SDS011;4203;48.144;14.118;2023-04-03T07:04:23;7.60;;;5.60;;
8331;SDS011;4203;48.144;14.118;2023-04-03T07:06:51;7.57;;;5.13;;
8331;SDS011;4203;48.144;14.118;2023-04-03T07:09:18;5.20;;;4.67;;
8331;SDS011;4203;48.144;14.118;2023-04-03T07:11:46;5.80;;;5.23;;
8331;SDS011;4203;48.144;14.118;2023-04-03T07:14:13;5.90;;;5.40;;
8331;SDS011;4203;48.144;14.118;2023-04-03T07:16:42;5.67;;;5.13;;
8331;SDS011;4203;48.144;14.118;2023-04-03T07:19:09;5.30;;;4.90;;
8331;SDS011;4203;48.144;14.118;2023-04-03T07:21:36;6.33;;;5.17;;
8331;SDS011;4203;48.144;14.118;2023-04-03T07:24:04;5.30;;;4.80;;
8331;SDS011;4203;48.144;14.118;2023-04-03T07:26:31;4.47;;;4.07;;
8331;SDS011;4203;48.144;14.118;2023-04-03T07:28:58;4.97;;;4.50;;
8331;SDS011;4203;48.144;14.118;2023-04-03T07:31:26;5.03;;;3.97;;
8331;SDS011;4203;48.144;14.118;2023-04-03T07:33:54;3.63;;;3.33;;
8331;SDS011;4203;48.144;14.118;2023-04-03T07:36:22;3.67;;;3.40;;
8331;SDS011;4203;48.144;14.118;2023-04-03T07:38:49;4.13;;;3.77;;
8331;SDS011;4203;48.144;14.118;2023-04-03T07:41:18;4.33;;;3.80;;
8331;SDS011;4203;48.144;14.118;2023-04-03T07:43:47;3.87;;;3.57;;
8331;SDS011;4203;48.144;14.118;2023-04-03T07:46:16;4.20;;;3.83;;
8331;SDS011;4203;48.144;14.118;2023-04-03T07:48:43;5.27;;;3.53;;
8331;SDS011;4203;48.144;14.118;2023-04-03T07:51:13;4.10;;;3.80;;
8331;SDS011;4203;48.144;14.118;2023-04-03T07:53:40;4.07;;;3.53;;
8331;SDS011;4203;48.144;14.118;2023-04-03T07:56:08;3.00;;;2.80;;
8331;SDS011;4203;48.144;14.118;2023-04-03T07:58:35;3.83;;;3.30;;
8331;SDS011;4203;48.144;14.118;2023-04-03T08:01:03;3.90;;;3.50;;
8331;SDS011;4203;48.144;14.118;2023-04-03T08:03:31;3.63;;;3.43;;
8331;SDS011;4203;48.144;14.118;2023-04-03T08:06:01;4.30;;;3.90;;
8331;SDS011;4203;48.144;14.118;2023-04-03T08:08:31;4.33;;;4.00;;
8331;SDS011;4203;48.144;14.118;2023-04-03T08:11:00;5.33;;;3.63;;
8331;SDS011;4203;48.144;14.118;2023-04-03T08:13:28;4.00;;;3.70;;
8331;SDS011;4203;48.144;14.118;2023-04-03T08:15:55;3.30;;;2.93;;
8331;SDS011;4203;48.144;14.118;2023-04-03T08:18:24;3.10;;;2.90;;
8331;SDS011;4203;48.144;14.118;2023-04-03T08:20:52;3.63;;;3.37;;
8331;SDS011;4203;48.144;14.118;2023-04-03T08:23:19;3.23;;;3.00;;
8331;SDS011;4203;48.144;14.118;2023-04-03T08:25:47;3.47;;;3.27;;
8331;SDS011;4203;48.144;14.118;2023-04-03T08:28:16;3.83;;;3.10;;
8331;SDS011;4203;48.144;14.118;2023-04-03T08:30:43;4.00;;;3.37;;
8331;SDS011;4203;48.144;14.118;2023-04-03T08:33:11;3.50;;;3.30;;
8331;SDS011;4203;48.144;14.118;2023-04-03T08:35:39;4.47;;;3.43;;
8331;SDS011;4203;48.144;14.118;2023-04-03T08:38:06;5.20;;;3.67;;
8331;SDS011;4203;48.144;14.118;2023-04-03T08:40:34;4.30;;;3.50;;
8331;SDS011;4203;48.144;14.118;2023-04-03T08:43:06;3.67;;;3.43;;
8331;SDS011;4203;48.144;14.118;2023-04-03T08:45:51;5.07;;;3.93;;
8331;SDS011;4203;48.144;14.118;2023-04-03T08:48:21;4.37;;;3.97;;
8331;SDS011;4203;48.144;14.118;2023-04-03T08:50:53;4.77;;;3.73;;
8331;SDS011;4203;48.144;14.118;2023-04-03T08:53:25;4.83;;;4.33;;
8331;SDS011;4203;48.144;14.118;2023-04-03T08:55:57;4.40;;;4.00;;
8331;SDS011;4203;48.144;14.118;2023-04-03T08:58:29;6.33;;;4.23;;
8331;SDS011;4203;48.144;14.118;2023-04-03T09:01:00;4.83;;;3.63;;
8331;SDS011;4203;48.144;14.118;2023-04-03T09:03:29;4.30;;;3.87;;
8331;SDS011;4203;48.144;14.118;2023-04-03T09:05:59;4.13;;;3.70;;
8331;SDS011;4203;48.144;14.118;2023-04-03T09:08:30;4.40;;;3.67;;
8331;SDS011;4203;48.144;14.118;2023-04-03T09:11:05;4.30;;;3.90;;
8331;SDS011;4203;48.144;14.118;2023-04-03T09:13:42;3.70;;;3.40;;
8331;SDS011;4203;48.144;14.118;2023-04-03T09:16:20;4.03;;;3.60;;
8331;SDS011;4203;48.144;14.118;2023-04-03T09:18:56;5.13;;;3.80;;
8331;SDS011;4203;48.144;14.118;2023-04-03T09:21:30;4.17;;;3.77;;
8331;SDS011;4203;48.144;14.118;2023-04-03T09:24:01;4.27;;;3.97;;
8331;SDS011;4203;48.144;14.118;2023-04-03T09:26:32;4.00;;;3.60;;
8331;SDS011;4203;48.144;14.118;2023-04-03T09:29:06;3.87;;;3.57;;
8331;SDS011;4203;48.144;14.118;2023-04-03T09:31:38;3.80;;;3.50;;
8331;SDS011;4203;48.144;14.118;2023-04-03T09:34:09;3.27;;;3.00;;
8331;SDS011;4203;48.144;14.118;2023-04-03T09:36:47;3.33;;;3.10;;
8331;SDS011;4203;48.144;14.118;2023-04-03T09:39:18;3.83;;;3.43;;
8331;SDS011;4203;48.144;14.118;2023-04-03T09:41:57;4.33;;;3.23;;
8331;SDS011;4203;48.144;14.118;2023-04-03T09:44:29;3.50;;;3.20;;
8331;SDS011;4203;48.144;14.118;2023-04-03T09:46:57;2.83;;;2.63;;
8331;SDS011;4203;48.144;14.118;2023-04-03T09:49:25;2.60;;;2.40;;
8331;SDS011;4203;48.144;14.118;2023-04-03T09:51:52;2.50;;;2.30;;
8331;SDS011;4203;48.144;14.118;2023-04-03T09:54:30;2.47;;;2.27;;
8331;SDS011;4203;48.144;14.118;2023-04-03T09:57:06;2.63;;;2.43;;
8331;SDS011;4203;48.144;14.118;2023-04-03T09:59:40;2.87;;;2.60;;
8331;SDS011;4203;48.144;14.118;2023-04-03T10:08:08;2.80;;;2.40;;
8331;SDS011;4203;48.144;14.118;2023-04-03T10:10:37;6.20;;;2.83;;
8331;SDS011;4203;48.144;14.118;2023-04-03T10:13:06;2.50;;;2.10;;
8331;SDS011;4203;48.144;14.118;2023-04-03T10:15:39;3.43;;;2.33;;
8331;SDS011;4203;48.144;14.118;2023-04-03T10:18:14;2.80;;;2.57;;
8331;SDS011;4203;48.144;14.118;2023-04-03T10:20:56;3.00;;;2.43;;
8331;SDS011;4203;48.144;14.118;2023-04-03T10:23:31;4.93;;;2.40;;
8331;SDS011;4203;48.144;14.118;2023-04-03T10:26:08;4.43;;;2.37;;
8331;SDS011;4203;48.144;14.118;2023-04-03T10:28:43;2.23;;;2.10;;
8331;SDS011;4203;48.144;14.118;2023-04-03T10:31:21;2.87;;;2.40;;
8331;SDS011;4203;48.144;14.118;2023-04-03T10:33:56;3.80;;;2.57;;
8331;SDS011;4203;48.144;14.118;2023-04-03T10:36:33;2.30;;;2.20;;
8331;SDS011;4203;48.144;14.118;2023-04-03T10:39:09;2.33;;;2.03;;
8331;SDS011;4203;48.144;14.118;2023-04-03T10:41:46;2.20;;;2.10;;
8331;SDS011;4203;48.144;14.118;2023-04-03T10:44:24;2.03;;;1.93;;
8331;SDS011;4203;48.144;14.118;2023-04-03T10:47:01;4.00;;;2.43;;
8331;SDS011;4203;48.144;14.118;2023-04-03T10:49:35;2.93;;;2.17;;
8331;SDS011;4203;48.144;14.118;2023-04-03T10:52:13;2.10;;;1.90;;
8331;SDS011;4203;48.144;14.118;2023-04-03T10:54:46;2.47;;;2.00;;
8331;SDS011;4203;48.144;14.118;2023-04-03T10:57:22;2.17;;;2.00;;
8331;SDS011;4203;48.144;14.118;2023-04-03T10:59:52;1.73;;;1.63;;
8331;SDS011;4203;48.144;14.118;2023-04-03T11:02:25;2.30;;;2.10;;
8331;SDS011;4203;48.144;14.118;2023-04-03T11:04:56;2.30;;;2.10;;
8331;SDS011;4203;48.144;14.118;2023-04-03T11:07:29;2.77;;;2.57;;
8331;SDS011;4203;48.144;14.118;2023-04-03T11:10:02;2.67;;;2.47;;
8331;SDS011;4203;48.144;14.118;2023-04-03T11:12:35;2.10;;;1.90;;
8331;SDS011;4203;48.144;14.118;2023-04-03T11:15:11;4.10;;;2.40;;
8331;SDS011;4203;48.144;14.118;2023-04-03T11:17:41;2.53;;;2.00;;
8331;SDS011;4203;48.144;14.118;2023-04-03T11:20:17;2.55;;;2.35;;
8331;SDS011;4203;48.144;14.118;2023-04-03T11:22:47;2.35;;;2.00;;
8331;SDS011;4203;48.144;14.118;2023-04-03T11:25:19;2.40;;;2.20;;
8331;SDS011;4203;48.144;14.118;2023-04-03T11:27:49;3.42;;;2.50;;
8331;SDS011;4203;48.144;14.118;2023-04-03T11:30:21;2.50;;;2.40;;
8331;SDS011;4203;48.144;14.118;2023-04-03T11:32:56;3.90;;;2.43;;
8331;SDS011;4203;48.144;14.118;2023-04-03T11:35:32;3.47;;;2.40;;
8331;SDS011;4203;48.144;14.118;2023-04-03T11:38:02;2.90;;;2.67;;
8331;SDS011;4203;48.144;14.118;2023-04-03T11:40:32;3.03;;;2.33;;
8331;SDS011;4203;48.144;14.118;2023-04-03T11:43:05;5.00;;;2.73;;
8331;SDS011;4203;48.144;14.118;2023-04-03T11:45:50;5.37;;;2.40;;
8331;SDS011;4203;48.144;14.118;2023-04-03T11:54:36;2.97;;;2.77;;
8331;SDS011;4203;48.144;14.118;2023-04-03T11:57:22;2.97;;;2.63;;
8331;SDS011;4203;48.144;14.118;2023-04-03T12:12:57;3.00;;;2.80;;
8331;SDS011;4203;48.144;14.118;2023-04-03T12:21:09;3.93;;;3.10;;
8331;SDS011;4203;48.144;14.118;2023-04-03T12:26:32;3.50;;;3.20;;
8331;SDS011;4203;48.144;14.118;2023-04-03T12:29:10;3.13;;;2.83;;
8331;SDS011;4203;48.144;14.118;2023-04-03T12:31:45;6.07;;;5.30;;
8331;SDS011;4203;48.144;14.118;2023-04-03T12:34:27;7.80;;;7.00;;
8331;SDS011;4203;48.144;14.118;2023-04-03T12:37:17;7.20;;;6.10;;
8331;SDS011;4203;48.144;14.118;2023-04-03T12:39:55;8.40;;;7.20;;
8331;SDS011;4203;48.144;14.118;2023-04-03T12:42:46;5.17;;;4.07;;
8331;SDS011;4203;48.144;14.118;2023-04-03T12:45:29;4.73;;;3.30;;
8331;SDS011;4203;48.144;14.118;2023-04-03T12:48:10;3.53;;;3.23;;
8331;SDS011;4203;48.144;14.118;2023-04-03T12:50:41;3.40;;;3.10;;
8331;SDS011;4203;48.144;14.118;2023-04-03T12:53:12;3.73;;;3.00;;
8331;SDS011;4203;48.144;14.118;2023-04-03T12:55:43;3.63;;;3.10;;
8331;SDS011;4203;48.144;14.118;2023-04-03T12:58:15;5.07;;;4.57;;
8331;SDS011;4203;48.144;14.118;2023-04-03T13:00:43;4.33;;;2.80;;
8331;SDS011;4203;48.144;14.118;2023-04-03T13:05:59;5.17;;;3.37;;
8331;SDS011;4203;48.144;14.118;2023-04-03T13:08:30;9.50;;;8.33;;
8331;SDS011;4203;48.144;14.118;2023-04-03T13:10:59;4.20;;;3.90;;
8331;SDS011;4203;48.144;14.118;2023-04-03T13:13:31;3.60;;;3.30;;
8331;SDS011;4203;48.144;14.118;2023-04-03T13:15:58;4.03;;;3.73;;
8331;SDS011;4203;48.144;14.118;2023-04-03T13:18:27;3.30;;;3.10;;
8331;SDS011;4203;48.144;14.118;2023-04-03T13:20:57;4.50;;;3.57;;
8331;SDS011;4203;48.144;14.118;2023-04-03T13:23:29;3.80;;;3.50;;
8331;SDS011;4203;48.144;14.118;2023-04-03T13:25:57;3.07;;;2.83;;
8331;SDS011;4203;48.144;14.118;2023-04-03T13:28:28;2.80;;;2.60;;
8331;SDS011;4203;48.144;14.118;2023-04-03T13:31:00;6.30;;;5.17;;
8331;SDS011;4203;48.144;14.118;2023-04-03T13:33:32;8.63;;;7.47;;
8331;SDS011;4203;48.144;14.118;2023-04-03T13:36:03;4.43;;;4.03;;
8331;SDS011;4203;48.144;14.118;2023-04-03T13:38:33;3.17;;;3.07;;
8331;SDS011;4203;48.144;14.118;2023-04-03T13:41:04;3.27;;;3.07;;
8331;SDS011;4203;48.144;14.118;2023-04-03T13:43:48;3.10;;;2.83;;
8331;SDS011;4203;48.144;14.118;2023-04-03T13:46:23;4.23;;;3.93;;
8331;SDS011;4203;48.144;14.118;2023-04-03T13:48:54;3.13;;;2.70;;
8331;SDS011;4203;48.144;14.118;2023-04-03T13:51:23;3.83;;;2.50;;
8331;SDS011;4203;48.144;14.118;2023-04-03T13:53:52;3.27;;;2.87;;
8331;SDS011;4203;48.144;14.118;2023-04-03T13:56:24;2.50;;;2.40;;
8331;SDS011;4203;48.144;14.118;2023-04-03T13:58:58;3.30;;;3.00;;
8331;SDS011;4203;48.144;14.118;2023-04-03T14:01:34;3.10;;;2.80;;
8331;SDS011;4203;48.144;14.118;2023-04-03T14:04:11;3.30;;;3.10;;
8331;SDS011;4203;48.144;14.118;2023-04-03T14:06:42;3.00;;;2.63;;
8331;SDS011;4203;48.144;14.118;2023-04-03T14:09:09;3.57;;;3.00;;
8331;SDS011;4203;48.144;14.118;2023-04-03T14:11:36;2.67;;;2.47;;
8331;SDS011;4203;48.144;14.118;2023-04-03T14:14:10;4.20;;;2.90;;
8331;SDS011;4203;48.144;14.118;2023-04-03T14:16:41;2.63;;;2.50;;
8331;SDS011;4203;48.144;14.118;2023-04-03T14:19:14;2.80;;;2.60;;
8331;SDS011;4203;48.144;14.118;2023-04-03T14:21:46;2.50;;;2.40;;
8331;SDS011;4203;48.144;14.118;2023-04-03T14:24:13;2.97;;;2.77;;
8331;SDS011;4203;48.144;14.118;2023-04-03T14:26:41;2.90;;;2.60;;
8331;SDS011;4203;48.144;14.118;2023-04-03T14:29:12;5.17;;;2.60;;
8331;SDS011;4203;48.144;14.118;2023-04-03T14:31:40;3.50;;;3.20;;
8331;SDS011;4203;48.144;14.118;2023-04-03T14:34:08;3.17;;;2.70;;
8331;SDS011;4203;48.144;14.118;2023-04-03T14:36:36;4.27;;;3.07;;
8331;SDS011;4203;48.144;14.118;2023-04-03T14:39:05;2.53;;;2.33;;
8331;SDS011;4203;48.144;14.118;2023-04-03T14:41:33;3.00;;;2.80;;
8331;SDS011;4203;48.144;14.118;2023-04-03T14:44:01;4.53;;;4.20;;
8331;SDS011;4203;48.144;14.118;2023-04-03T14:46:31;8.10;;;7.30;;
8331;SDS011;4203;48.144;14.118;2023-04-03T14:49:01;5.57;;;4.53;;
8331;SDS011;4203;48.144;14.118;2023-04-03T14:51:32;7.97;;;7.17;;
8331;SDS011;4203;48.144;14.118;2023-04-03T14:54:00;5.00;;;4.60;;
8331;SDS011;4203;48.144;14.118;2023-04-03T14:56:28;4.33;;;3.93;;
8331;SDS011;4203;48.144;14.118;2023-04-03T14:58:56;4.33;;;3.53;;
8331;SDS011;4203;48.144;14.118;2023-04-03T15:01:27;4.60;;;4.20;;
8331;SDS011;4203;48.144;14.118;2023-04-03T15:03:55;3.20;;;3.00;;
8331;SDS011;4203;48.144;14.118;2023-04-03T15:06:23;3.50;;;3.20;;
8331;SDS011;4203;48.144;14.118;2023-04-03T15:08:51;3.23;;;3.03;;
8331;SDS011;4203;48.144;14.118;2023-04-03T15:11:18;3.47;;;3.20;;
8331;SDS011;4203;48.144;14.118;2023-04-03T15:13:46;4.30;;;3.90;;
8331;SDS011;4203;48.144;14.118;2023-04-03T15:16:14;3.40;;;3.10;;
8331;SDS011;4203;48.144;14.118;2023-04-03T15:18:43;5.10;;;2.80;;
8331;SDS011;4203;48.144;14.118;2023-04-03T15:21:13;3.13;;;2.93;;
8331;SDS011;4203;48.144;14.118;2023-04-03T15:23:40;3.03;;;2.83;;
8331;SDS011;4203;48.144;14.118;2023-04-03T15:26:07;2.97;;;2.77;;
8331;SDS011;4203;48.144;14.118;2023-04-03T15:28:36;3.53;;;3.00;;
8331;SDS011;4203;48.144;14.118;2023-04-03T15:31:05;4.40;;;2.90;;
8331;SDS011;4203;48.144;14.118;2023-04-03T15:33:34;4.27;;;2.57;;
8331;SDS011;4203;48.144;14.118;2023-04-03T15:36:01;3.00;;;2.80;;
8331;SDS011;4203;48.144;14.118;2023-04-03T15:38:31;3.00;;;2.80;;
8331;SDS011;4203;48.144;14.118;2023-04-03T15:40:58;3.10;;;2.90;;
8331;SDS011;4203;48.144;14.118;2023-04-03T15:43:26;3.13;;;2.93;;
8331;SDS011;4203;48.144;14.118;2023-04-03T15:45:53;2.60;;;2.50;;
8331;SDS011;4203;48.144;14.118;2023-04-03T15:48:24;2.67;;;2.57;;
8331;SDS011;4203;48.144;14.118;2023-04-03T15:50:52;3.57;;;3.13;;
8331;SDS011;4203;48.144;14.118;2023-04-03T15:53:20;3.83;;;2.93;;
8331;SDS011;4203;48.144;14.118;2023-04-03T15:55:48;3.70;;;3.23;;
8331;SDS011;4203;48.144;14.118;2023-04-03T15:58:15;3.80;;;3.30;;